Whitesboro, NY (13492)

11:18 AM EDT die 27o July, anno 2016 (GMT -0400)
Harts Hill | | Change Station

Elev 682 ft 43.11 °N, 75.32 °W | Updated 47 seconds ago

Clear
Serena
77.7 °F
Feels Like 80 °F
N
0.9
Ventus Variabilis Ventus from Zephyrus
Gusts 4.0 mph

Hodie
High -- | Low -- °F
--% Chance of Precip.
Yesterday
High -- | Low -- °F
Precip. -- in
Pressio 29.99 in
Visibilitas 10.0 milia passuum
Clouds Serena
Index Caloris 80 °F
Frigus in quo Ros apparet 68 °F
Umor 71%
Rainfall 0.00 in
Snow Depth Not available.
5:47 AM 8:27 PM
Last Quarter, 42% visible
METAR KRME 271453Z 31006KT 10SM CLR 24/19 A3000 RMK AO2 SLP154 T02440189 50000
Pressio 29.99 in
Visibilitas 10.0 milia passuum
Clouds Serena
Index Caloris 80 °F
Frigus in quo Ros apparet 68 °F
Umor 71%
Rainfall 0.00 in
Snow Depth Not available.
5:47 AM 8:27 PM
Last Quarter, 42% visible
METAR KRME 271453Z 31006KT 10SM CLR 24/19 A3000 RMK AO2 SLP154 T02440189 50000

10-Day Weather Forecast

Almanac

Astronomy

Jul. 27, 2016 Rise Set
Actual Time
Civil Twilight
Nautical Twilight
Astronomical Twilight
Moon
Length Of Visible Light
Length of Day
Tomorrow will be .
, % of the Moon is Illuminated

Today's Extremes

State Highs State Lows

Community

WunderPhotos

Upload Photos

1,927,858 photos uploaded!

WunderBlog® & News

Nearby

Air Quality

  Air Quality AQ Index Pollutant
Not available.

Snow Depth

Station Depth Elevation

Earthquake Activity

City Distance Mag. Time & Date
Minimum magnitude displayed is 2.5.

Coastal Water Temperatures

Locus Calor

Stations

Nearby Weather Stations

Station Location Temp Frigus Venti Frigus in quo Ros apparet Umor Ventus Precip. Elev Renovata Type
                   

Watches & Warnings

There are currently no watches in effect.